Weather at Tripp Strip

Public forecast

Using degrees Fahrenheit for public forecast. Weather courtesy of forecast.io.

Closest aviation weather report (METAR) to Tripp Strip

Closest report is Searcy Municipal Airport, 8.3 nm (15.4 km) NW. Retrieved 2020/09/26 08:28 UTC (0 seconds ago):

KSRC 260828Z AUTO 00000KT 3/4SM BR CLR 14/14 A2999 RMK AO2

Closest aviation forecast (TAF) to Tripp Strip

Closest forecast is Little Rock Air Force Base, 29.1 nm (53.8 km) WSW. Retrieved 2020/09/26 07:06 UTC (1 hour ago):

TAF TAF KLRF 260700Z 2607/2713 VRB05KT 9999 BKN030 BKN050 QNH2997INS BECMG 2609/2610 VRB03KT 4800 BR SCT015 BKN030 BKN050 QNH2998INS TEMPO 2610/2614 BKN015 BECMG 2613/2614 21006KT 9999 NSW BKN018 BKN050 QNH2992INS BECMG 2619/2620 18009KT 9999 SCT020 SCT050 QNH2988INS BECMG 2701/2702 17005KT 9999 SCT030 BKN120 QNH2985INS TX24/2621Z TN13/2611Z